Time;durP1;ratioP1;P1;durP2;ratioP2;P2;SDS_P1;SDS_P2;PMS_P1;PMS_P2;Temp;Humidity;BMP_temperature;BMP_pressure;BME280_temperature;BME280_humidity;BME280_pressure;Samples;Min_cycle;Max_cycle;Signal;HPM_P1;HPM_P2
2023/10/15 00:00:20;;;;;;;47.95;29.48;;;;;;;22.30;100.00;101332.22;4913991;29;20082;-42
2023/10/15 00:02:49;;;;;;;54.08;31.67;;;;;;;22.31;100.00;101336.63;4927406;29;20051;-40
2023/10/15 00:05:18;;;;;;;49.38;29.80;;;;;;;22.30;100.00;101331.44;4928444;29;20052;-41
2023/10/15 00:07:47;;;;;;;47.90;28.65;;;;;;;22.29;100.00;101330.66;4928732;29;20036;-42
2023/10/15 00:10:16;;;;;;;51.90;29.98;;;;;;;22.42;100.00;101330.41;4931719;29;20039;-41
2023/10/15 00:12:45;;;;;;;46.03;27.45;;;;;;;22.33;100.00;101328.44;4927189;29;20047;-41
2023/10/15 00:15:15;;;;;;;50.47;29.20;;;;;;;22.34;100.00;101332.06;4930772;29;20047;-43
2023/10/15 00:17:42;;;;;;;47.50;27.08;;;;;;;22.27;100.00;101327.50;4929818;29;20627;-42
2023/10/15 00:20:16;;;;;;;45.60;27.20;;;;;;;22.30;100.00;101320.91;4930894;29;20170;-41
2023/10/15 00:22:48;;;;;;;50.00;28.17;;;;;;;22.30;100.00;101328.59;4930734;29;20062;-41
2023/10/15 00:25:15;;;;;;;52.95;27.67;;;;;;;22.26;100.00;101328.78;4929806;29;20426;-42
2023/10/15 00:27:43;;;;;;;43.92;26.52;;;;;;;22.25;100.00;101321.56;4929469;29;20056;-47
2023/10/15 00:30:18;;;;;;;45.33;25.52;;;;;;;22.34;100.00;101326.41;4931034;29;20079;-43
2023/10/15 00:32:46;;;;;;;44.95;25.85;;;;;;;22.32;100.00;101328.91;4929169;29;20477;-43
2023/10/15 00:35:14;;;;;;;44.42;25.00;;;;;;;22.31;100.00;101324.53;4929455;29;20090;-42
2023/10/15 00:37:41;;;;;;;47.75;26.67;;;;;;;22.32;100.00;101321.22;4930586;29;20483;-44
2023/10/15 00:40:20;;;;;;;41.17;23.85;;;;;;;22.35;100.00;101322.28;4927631;29;20063;-43
2023/10/15 00:42:46;;;;;;;41.47;24.08;;;;;;;22.33;100.00;101322.78;4929854;29;20062;-42
2023/10/15 00:45:14;;;;;;;44.60;24.98;;;;;;;22.30;100.00;101328.59;4928422;29;20114;-42
2023/10/15 00:48:02;;;;;;;38.38;23.55;;;;;;;22.26;100.00;101331.59;4930376;29;20543;-44
2023/10/15 00:50:31;;;;;;;39.05;24.38;;;;;;;22.33;100.00;101336.13;4924860;29;20044;-42
2023/10/15 00:53:06;;;;;;;43.35;24.27;;;;;;;22.28;100.00;101345.28;4928415;29;20055;-45
2023/10/15 00:55:37;;;;;;;40.75;22.83;;;;;;;22.53;100.00;101339.13;4929173;29;20051;-43
2023/10/15 00:58:08;;;;;;;37.95;22.48;;;;;;;22.38;100.00;101341.16;4928337;29;20044;-43
2023/10/15 01:00:52;;;;;;;36.58;21.95;;;;;;;22.29;100.00;101332.69;4929528;29;20798;-42
2023/10/15 01:03:30;;;;;;;40.40;22.25;;;;;;;22.27;100.00;101321.06;4928507;29;20127;-43
2023/10/15 01:06:00;;;;;;;38.35;21.92;;;;;;;22.23;100.00;101314.78;4930433;29;20052;-44
2023/10/15 01:08:35;;;;;;;39.60;22.10;;;;;;;22.24;100.00;101314.31;4927941;29;20154;-42
2023/10/15 01:11:11;;;;;;;39.58;22.00;;;;;;;22.22;100.00;101307.56;4927115;29;20050;-39
2023/10/15 01:13:38;;;;;;;39.58;21.88;;;;;;;22.17;100.00;101317.50;4929862;29;20094;-41
2023/10/15 01:16:10;;;;;;;37.45;20.98;;;;;;;22.20;100.00;101321.44;4928511;29;20051;-41
2023/10/15 01:18:37;;;;;;;34.78;20.88;;;;;;;22.21;100.00;101334.31;4929882;29;20047;-41
2023/10/15 01:21:09;;;;;;;34.55;18.88;;;;;;;22.18;100.00;101376.50;4933943;29;20060;-41
2023/10/15 01:23:58;;;;;;;37.17;20.10;;;;;;;22.23;100.00;101379.94;4934712;29;20089;-45
2023/10/15 01:26:23;;;;;;;34.00;20.48;;;;;;;22.21;100.00;101332.28;4929146;29;20052;-45
2023/10/15 01:28:52;;;;;;;33.65;20.15;;;;;;;22.27;100.00;101346.56;4932646;29;20510;-42
2023/10/15 01:31:19;;;;;;;32.85;18.55;;;;;;;22.26;100.00;101371.25;4933409;29;20794;-40
2023/10/15 01:33:46;;;;;;;37.40;20.50;;;;;;;22.25;100.00;101360.41;4934242;29;20058;-42
2023/10/15 01:36:26;;;;;;;34.05;19.42;;;;;;;22.25;100.00;101364.03;4930391;29;20143;-45
2023/10/15 01:38:57;;;;;;;34.13;18.40;;;;;;;22.23;100.00;101354.44;4933612;29;20079;-44
2023/10/15 01:41:27;;;;;;;32.63;18.92;;;;;;;22.24;100.00;101356.03;4932362;29;20143;-40
2023/10/15 01:43:59;;;;;;;37.20;18.73;;;;;;;22.27;100.00;101355.06;4933381;29;20127;-44
2023/10/15 01:49:07;;;;;;;37.53;18.77;;;;;;;22.24;100.00;101361.69;4927164;29;20107;-42
2023/10/15 01:51:39;;;;;;;39.38;18.38;;;;;;;22.21;100.00;101346.44;4932774;29;20119;-44
2023/10/15 01:54:09;;;;;;;33.00;17.95;;;;;;;22.23;100.00;101357.28;4926656;29;20086;-41
2023/10/15 01:56:39;;;;;;;31.90;17.58;;;;;;;22.27;100.00;101363.56;4932207;29;20051;-40
2023/10/15 01:59:09;;;;;;;32.13;16.90;;;;;;;22.26;100.00;101354.25;4933698;29;20086;-40
2023/10/15 02:01:41;;;;;;;31.48;17.63;;;;;;;22.22;100.00;101352.88;4933177;29;20087;-45
2023/10/15 02:04:15;;;;;;;30.92;16.70;;;;;;;22.37;100.00;101362.25;4930923;29;20047;-43
2023/10/15 02:06:44;;;;;;;31.27;16.40;;;;;;;22.35;100.00;101365.56;4933547;29;20430;-43
2023/10/15 02:09:21;;;;;;;30.25;16.85;;;;;;;22.36;100.00;101369.16;4933472;29;20118;-40
2023/10/15 02:11:54;;;;;;;28.55;16.88;;;;;;;22.35;100.00;101367.59;4931158;29;20453;-40
2023/10/15 02:14:27;;;;;;;28.88;16.05;;;;;;;22.35;100.00;101367.59;4929361;29;20051;-40
2023/10/15 02:16:54;;;;;;;29.10;16.02;;;;;;;22.34;100.00;101363.22;4933606;29;20051;-41
2023/10/15 02:19:40;;;;;;;29.77;15.48;;;;;;;22.34;100.00;101355.47;4931528;29;20503;-40
2023/10/15 02:22:12;;;;;;;28.33;15.35;;;;;;;22.37;100.00;101353.75;4925227;29;20067;-44
2023/10/15 02:24:47;;;;;;;29.98;16.42;;;;;;;22.32;100.00;101349.53;4933701;29;20056;-38
2023/10/15 02:27:23;;;;;;;30.25;15.10;;;;;;;22.31;100.00;101345.13;4933419;29;20514;-40
2023/10/15 02:29:53;;;;;;;28.65;15.38;;;;;;;22.32;100.00;101341.03;4932381;29;20050;-47
2023/10/15 02:32:21;;;;;;;28.15;15.82;;;;;;;22.31;100.00;101333.03;4933103;29;20055;-41
2023/10/15 02:34:51;;;;;;;28.17;15.20;;;;;;;22.27;100.00;101338.06;4931987;29;20055;-44
2023/10/15 02:37:19;;;;;;;28.08;15.10;;;;;;;22.27;100.00;101338.84;4932938;29;20051;-47
2023/10/15 02:39:52;;;;;;;27.75;15.25;;;;;;;22.26;100.00;101337.28;4933025;29;20534;-38
2023/10/15 02:42:19;;;;;;;26.77;14.18;;;;;;;22.29;100.00;101338.34;4919771;29;20044;-43
2023/10/15 02:44:50;;;;;;;29.23;14.02;;;;;;;22.27;100.00;101330.34;4931218;29;20083;-38
2023/10/15 02:50:04;;;;;;;25.42;14.50;;;;;;;22.25;100.00;101343.41;4924720;29;20531;-40
2023/10/15 02:52:43;;;;;;;25.90;13.90;;;;;;;22.21;100.00;101351.31;4932313;29;20091;-40
2023/10/15 02:55:16;;;;;;;27.52;13.70;;;;;;;22.22;100.00;101347.22;4926842;29;20182;-44
2023/10/15 02:57:44;;;;;;;25.60;13.43;;;;;;;22.22;100.00;101350.03;4932847;29;20075;-41
2023/10/15 03:00:18;;;;;;;26.95;13.27;;;;;;;22.26;100.00;101353.47;4928100;29;20060;-40
2023/10/15 03:02:45;;;;;;;25.67;13.02;;;;;;;22.21;100.00;101360.63;4930540;29;20059;-43
2023/10/15 03:05:13;;;;;;;25.02;13.00;;;;;;;22.24;100.00;101358.84;4932779;29;20048;-46
2023/10/15 03:07:42;;;;;;;25.30;13.30;;;;;;;22.23;100.00;101354.44;4929486;29;20518;-44
2023/10/15 03:10:13;;;;;;;23.50;13.07;;;;;;;22.24;100.00;101356.03;4925468;29;20047;-40
2023/10/15 03:12:43;;;;;;;24.63;13.20;;;;;;;22.21;100.00;101357.78;4932448;29;20059;-42
2023/10/15 03:15:17;;;;;;;27.08;13.38;;;;;;;22.17;100.00;101346.63;4932555;29;20047;-44
2023/10/15 03:17:44;;;;;;;25.27;13.20;;;;;;;22.20;100.00;101353.34;4932328;29;20060;-44
2023/10/15 03:22:39;;;;;;;24.38;12.75;;;;;;;22.22;100.00;101350.03;4931205;29;20094;-40
2023/10/15 03:25:12;;;;;;;24.25;12.40;;;;;;;22.22;100.00;101350.03;4931558;29;20051;-43
2023/10/15 03:27:40;;;;;;;25.38;12.30;;;;;;;22.21;100.00;101354.16;4932298;29;20126;-40
2023/10/15 03:30:10;;;;;;;24.92;12.32;;;;;;;22.21;100.00;101346.44;4932151;29;20135;-40
2023/10/15 03:33:00;;;;;;;20.95;11.25;;;;;;;22.22;100.00;101335.88;4931981;29;20568;-39
2023/10/15 03:35:33;;;;;;;24.92;13.02;;;;;;;22.20;100.00;101336.38;4931833;29;20067;-45
2023/10/15 03:38:23;;;;;;;22.63;12.23;;;;;;;22.22;100.00;101336.69;4931965;29;20115;-43
2023/10/15 03:40:50;;;;;;;27.08;12.60;;;;;;;22.21;100.00;101329.47;4930873;29;20631;-39
2023/10/15 03:43:24;;;;;;;21.42;11.77;;;;;;;22.19;100.00;101326.31;4931697;29;20110;-41
2023/10/15 03:45:51;;;;;;;22.35;11.60;;;;;;;22.20;100.00;101333.53;4932106;29;20052;-40
2023/10/15 03:48:22;;;;;;;22.83;11.00;;;;;;;22.18;100.00;101334.00;4932049;29;20411;-42
2023/10/15 03:50:55;;;;;;;24.83;12.05;;;;;;;22.21;100.00;101345.66;4931299;29;20486;-42
2023/10/15 03:53:35;;;;;;;20.15;11.48;;;;;;;22.18;100.00;101345.34;4931547;29;20048;-40
2023/10/15 03:56:04;;;;;;;25.55;12.57;;;;;;;22.17;100.00;101346.63;4930217;29;20598;-43
2023/10/15 03:58:34;;;;;;;25.17;12.15;;;;;;;22.17;100.00;101343.78;4931946;29;20055;-41
2023/10/15 04:03:47;;;;;;;22.98;11.52;;;;;;;22.17;100.00;101349.44;4931850;29;20111;-39
2023/10/15 04:06:16;;;;;;;18.80;10.23;;;;;;;22.15;100.00;101343.47;4930716;29;20513;-43
2023/10/15 04:09:27;;;;;;;21.23;11.20;;;;;;;22.15;100.00;101346.31;4929667;29;20044;-46
2023/10/15 04:11:42;;;;;;;20.85;11.20;;;;;;;22.16;100.00;101344.28;4925127;29;20114;-45
2023/10/15 04:14:15;;;;;;;21.23;10.77;;;;;;;22.17;100.00;101343.00;4929440;29;20130;-43
2023/10/15 04:16:44;;;;;;;20.10;10.13;;;;;;;22.13;100.00;101334.69;4931098;29;20098;-43
2023/10/15 04:19:12;;;;;;;18.98;10.25;;;;;;;22.15;100.00;101343.47;4931350;29;20130;-40
2023/10/15 04:21:38;;;;;;;18.88;10.18;;;;;;;22.10;100.00;101327.16;4930756;29;20519;-39
2023/10/15 04:24:07;;;;;;;22.15;10.75;;;;;;;22.15;100.00;101340.66;4931441;29;20055;-40
2023/10/15 04:26:42;;;;;;;21.70;11.10;;;;;;;22.16;100.00;101332.94;4931237;29;20574;-42
2023/10/15 04:29:18;;;;;;;17.58;9.02;;;;;;;22.17;100.00;101330.91;4930254;29;20047;-39
2023/10/15 04:31:59;;;;;;;22.58;10.30;;;;;;;22.17;100.00;101333.72;4923356;29;20138;-44
2023/10/15 04:34:30;;;;;;;20.98;10.13;;;;;;;22.15;100.00;101320.81;4931529;29;20075;-39
2023/10/15 04:36:57;;;;;;;19.15;9.57;;;;;;;22.13;100.00;101326.19;4930675;29;20056;-41
2023/10/15 04:39:24;;;;;;;18.98;9.85;;;;;;;22.15;100.00;101306.66;4931493;29;20043;-45
2023/10/15 04:42:20;;;;;;;18.08;9.27;;;;;;;22.13;100.00;101305.59;4931179;29;20434;-41
2023/10/15 04:44:47;;;;;;;18.92;9.57;;;;;;;22.13;100.00;101316.16;4929142;29;20135;-42
2023/10/15 04:47:18;;;;;;;20.08;10.73;;;;;;;22.13;100.00;101314.88;4930820;29;20086;-39
2023/10/15 04:49:47;;;;;;;20.25;9.32;;;;;;;22.13;100.00;101321.81;4930864;29;20495;-46
2023/10/15 04:52:15;;;;;;;18.80;9.77;;;;;;;22.11;100.00;101317.41;4930422;29;20051;-40
2023/10/15 04:54:43;;;;;;;19.23;9.55;;;;;;;22.13;100.00;101318.97;4933461;29;20480;-39
2023/10/15 04:57:09;;;;;;;20.63;9.77;;;;;;;22.10;100.00;101318.66;4934971;29;20048;-40
2023/10/15 04:59:36;;;;;;;18.42;8.98;;;;;;;22.11;100.00;101319.47;4934170;29;20130;-40
2023/10/15 05:02:03;;;;;;;20.33;9.70;;;;;;;22.10;100.00;101330.00;4933441;29;20470;-44
2023/10/15 05:04:29;;;;;;;16.20;8.85;;;;;;;22.12;100.00;101338.00;4935103;29;20054;-40
2023/10/15 05:06:56;;;;;;;19.55;9.32;;;;;;;22.11;100.00;101337.22;4935343;29;20052;-43
2023/10/15 05:09:22;;;;;;;20.08;9.55;;;;;;;22.11;100.00;101336.44;4934842;29;20153;-42
2023/10/15 05:11:53;;;;;;;19.08;9.75;;;;;;;22.10;100.00;101344.16;4934189;29;20099;-42
2023/10/15 05:14:19;;;;;;;16.75;8.57;;;;;;;22.10;100.00;101338.50;4935457;29;20809;-42
2023/10/15 05:16:46;;;;;;;19.08;9.18;;;;;;;22.11;100.00;101330.78;4932484;29;20075;-41
2023/10/15 05:19:17;;;;;;;19.33;9.13;;;;;;;22.09;100.00;101341.81;4934367;29;20044;-40
2023/10/15 05:21:44;;;;;;;20.67;8.52;;;;;;;22.08;100.00;101334.59;4934344;29;20132;-41
2023/10/15 05:24:11;;;;;;;16.92;8.20;;;;;;;22.08;100.00;101340.25;4934711;29;20118;-41
2023/10/15 05:26:37;;;;;;;18.58;9.23;;;;;;;22.07;100.00;101353.59;4934159;29;20087;-43
2023/10/15 05:29:04;;;;;;;18.73;9.00;;;;;;;22.07;100.00;101347.94;4934586;29;20052;-42
2023/10/15 05:31:30;;;;;;;18.45;8.48;;;;;;;22.08;100.00;101343.06;4933047;29;20065;-44
2023/10/15 05:33:57;;;;;;;19.27;8.05;;;;;;;22.09;100.00;101333.31;4929053;29;20055;-42
2023/10/15 05:36:24;;;;;;;17.55;8.20;;;;;;;22.07;100.00;101339.44;4934290;29;20510;-45
2023/10/15 05:38:50;;;;;;;17.02;8.43;;;;;;;22.05;100.00;101339.13;4934184;29;20144;-41
2023/10/15 05:41:19;;;;;;;19.13;8.90;;;;;;;22.05;100.00;101327.81;4934208;29;20043;-41
2023/10/15 05:43:45;;;;;;;17.05;7.90;;;;;;;22.05;100.00;101333.47;4934199;29;20066;-40
2023/10/15 05:46:12;;;;;;;16.70;8.07;;;;;;;22.05;100.00;101335.53;4933698;29;20525;-46
2023/10/15 05:48:39;;;;;;;19.10;8.32;;;;;;;22.05;100.00;101350.47;4933644;29;20142;-47
2023/10/15 05:51:09;;;;;;;18.92;8.57;;;;;;;22.03;100.00;101341.69;4933384;29;20090;-48
2023/10/15 05:53:35;;;;;;;17.17;8.32;;;;;;;22.07;100.00;101352.81;4934006;29;20051;-47
2023/10/15 05:56:02;;;;;;;18.15;8.43;;;;;;;22.08;100.00;101352.34;4938060;29;20893;-49
2023/10/15 05:58:29;;;;;;;17.00;8.55;;;;;;;22.06;100.00;101345.59;4934096;29;20047;-48
2023/10/15 06:00:55;;;;;;;17.10;8.20;;;;;;;22.06;100.00;101354.09;4933524;29;20047;-48
2023/10/15 06:03:22;;;;;;;17.73;8.10;;;;;;;22.07;100.00;101342.28;4929177;29;20052;-49
2023/10/15 06:05:48;;;;;;;15.95;7.57;;;;;;;22.05;100.00;101344.03;4933526;29;20668;-50
2023/10/15 06:08:15;;;;;;;17.58;7.38;;;;;;;22.05;100.00;101356.13;4927901;29;20063;-49
2023/10/15 06:10:41;;;;;;;16.33;7.70;;;;;;;22.05;100.00;101352.53;4933317;29;20079;-47
2023/10/15 06:13:09;;;;;;;17.73;8.10;;;;;;;22.03;100.00;101353.00;4933694;29;20055;-48
2023/10/15 06:15:36;;;;;;;18.30;7.70;;;;;;;22.03;100.00;101346.56;4933617;29;20505;-48
2023/10/15 06:18:04;;;;;;;15.68;7.07;;;;;;;22.03;100.00;101335.22;4933265;29;20071;-49
2023/10/15 06:20:30;;;;;;;17.05;8.13;;;;;;;22.02;100.00;101342.16;4932505;29;20059;-48
2023/10/15 06:22:58;;;;;;;15.95;7.75;;;;;;;22.06;100.00;101352.06;4933113;29;20052;-49
2023/10/15 06:25:25;;;;;;;14.75;7.40;;;;;;;22.05;100.00;101355.38;4933276;29;20059;-48
2023/10/15 06:27:51;;;;;;;15.25;7.25;;;;;;;22.03;100.00;101358.69;4932888;29;20732;-48
2023/10/15 06:30:19;;;;;;;15.05;7.22;;;;;;;22.08;100.00;101365.72;4933078;29;20048;-48
2023/10/15 06:32:52;;;;;;;16.10;7.50;;;;;;;22.04;100.00;101373.63;4928322;29;20142;-50
2023/10/15 06:35:22;;;;;;;16.33;6.97;;;;;;;22.02;100.00;101379.78;4933254;29;20059;-50
2023/10/15 06:37:50;;;;;;;14.75;7.07;;;;;;;22.03;100.00;101381.31;4922693;29;20052;-48
2023/10/15 06:40:17;;;;;;;13.57;6.47;;;;;;;22.06;100.00;101390.91;4933735;29;20499;-48
